Wheaton, Illinois
Current Conditions -  °F | °C
As of 5:52 AM on Monday 26 Jan 2015 (Local Time) from KDPA Reporting Station
Clear Clear  
Wind Chill:   Ceiling: Unl
Heat Index: 14°   Visibility: 10mi
Dew Point: 10°   Wind: 6mph
Humidity: 84%   Direction: 320°NW
Pressure: 29.96"   Gusts: NA
Location:  41.87°N, 88.11°W
Report Text: KDPA 261152Z 32005KT 10SM CLR M10/M12 A2996 RMK AO2 SLP158 T11001122 11072 21106 55005
Loading
Personal Weather Stations






























Interactive Weather Map New forecast layout! Learn more

10-Day Weather Forecast

Advertisements
Track Severe Weather on mobile